createdAt,value
2023-01-17T00:01:30.407Z,2.15
2023-01-17T00:04:15.614Z,1.92
2023-01-17T00:07:01.238Z,4.13
2023-01-17T00:09:47.927Z,1.35
2023-01-17T00:12:15.918Z,2.72
2023-01-17T00:14:43.910Z,1.75
2023-01-17T00:17:11.903Z,4.20
2023-01-17T00:19:57.867Z,2.77
2023-01-17T00:22:45.191Z,1.77
2023-01-17T00:25:33.975Z,2.95
2023-01-17T00:28:01.147Z,3.15
2023-01-17T00:30:28.156Z,3.35
2023-01-17T00:32:54.970Z,4.10
2023-01-17T00:35:22.829Z,3.83
2023-01-17T00:37:49.734Z,2.47
2023-01-17T00:40:18.140Z,4.50
2023-01-17T00:42:47.706Z,2.70
2023-01-17T00:45:33.090Z,2.25
2023-01-17T00:48:18.654Z,3.78
2023-01-17T00:51:04.328Z,1.55
2023-01-17T00:53:49.869Z,2.85
2023-01-17T00:56:36.468Z,3.17
2023-01-17T00:59:22.102Z,2.95
2023-01-17T01:02:07.871Z,6.43
2023-01-17T01:04:54.195Z,6.85
2023-01-17T01:07:39.740Z,3.47
2023-01-17T01:10:26.049Z,2.87
2023-01-17T01:13:13.061Z,3.83
2023-01-17T01:15:58.723Z,1.52
2023-01-17T01:18:44.216Z,5.10
2023-01-17T01:21:29.746Z,4.28
2023-01-17T01:24:15.233Z,3.50
2023-01-17T01:27:00.799Z,8.37
2023-01-17T01:29:47.493Z,9.10
2023-01-17T01:32:33.010Z,5.35
2023-01-17T01:35:00.904Z,6.67
2023-01-17T01:37:28.900Z,8.97
2023-01-17T01:39:57.060Z,8.07
2023-01-17T01:42:25.087Z,4.55
2023-01-17T01:44:56.107Z,3.15
2023-01-17T01:47:29.944Z,5.32
2023-01-17T01:50:00.974Z,5.15
2023-01-17T01:52:32.597Z,4.50
2023-01-17T01:55:05.101Z,3.40
2023-01-17T01:57:37.636Z,5.50
2023-01-17T02:00:11.674Z,3.67
2023-01-17T02:02:40.099Z,2.38
2023-01-17T02:05:10.653Z,2.10
2023-01-17T02:07:42.231Z,3.22
2023-01-17T02:10:11.257Z,2.70
2023-01-17T02:12:39.795Z,4.90
2023-01-17T02:15:10.255Z,5.43
2023-01-17T02:17:50.340Z,2.85
2023-01-17T02:20:59.791Z,2.22
2023-01-17T02:23:56.670Z,4.10
2023-01-17T02:26:45.526Z,2.97
2023-01-17T02:29:58.123Z,3.70
2023-01-17T02:32:47.192Z,5.63
2023-01-17T02:35:21.372Z,3.85
2023-01-17T02:37:58.709Z,2.38
2023-01-17T02:40:30.501Z,8.02
2023-01-17T02:43:02.779Z,5.28
2023-01-17T02:45:30.833Z,3.97
2023-01-17T02:48:00.172Z,6.50
2023-01-17T02:50:38.777Z,3.83
2023-01-17T02:53:19.825Z,3.40
2023-01-17T02:55:57.905Z,3.42
2023-01-17T02:58:48.855Z,2.63
2023-01-17T03:01:25.968Z,4.72
2023-01-17T03:04:01.546Z,4.75
2023-01-17T03:06:35.899Z,4.30
2023-01-17T03:09:05.120Z,6.32
2023-01-17T03:11:34.358Z,4.43
2023-01-17T03:14:02.413Z,2.50
2023-01-17T03:16:33.078Z,6.80
2023-01-17T03:19:02.760Z,1.67
2023-01-17T03:21:30.854Z,4.15
2023-01-17T03:23:58.849Z,6.20
2023-01-17T03:26:26.853Z,3.50
2023-01-17T03:28:54.746Z,3.53
2023-01-17T03:31:22.675Z,5.40
2023-01-17T03:33:50.578Z,4.80
2023-01-17T03:36:20.332Z,4.00
2023-01-17T03:38:48.292Z,2.83
2023-01-17T03:41:16.259Z,3.70
2023-01-17T03:43:44.246Z,1.60
2023-01-17T03:46:21.032Z,6.43
2023-01-17T03:48:49.319Z,4.87
2023-01-17T03:51:17.356Z,4.63
2023-01-17T03:53:47.379Z,5.38
2023-01-17T03:56:15.754Z,3.45
2023-01-17T03:58:43.978Z,2.90
2023-01-17T04:01:12.546Z,3.53
2023-01-17T04:03:40.661Z,3.50
2023-01-17T04:06:08.871Z,5.28
2023-01-17T04:08:36.838Z,3.30
2023-01-17T04:11:06.409Z,3.25
2023-01-17T04:13:34.382Z,2.92
2023-01-17T04:16:02.376Z,4.68
2023-01-17T04:18:30.416Z,5.40
2023-01-17T04:20:58.382Z,2.67
2023-01-17T04:23:26.417Z,1.83
2023-01-17T04:25:54.395Z,1.52
2023-01-17T04:28:23.686Z,3.83
2023-01-17T04:30:51.630Z,6.17
2023-01-17T04:33:19.841Z,6.00
2023-01-17T04:35:47.759Z,4.25
2023-01-17T04:38:15.737Z,2.38
2023-01-17T04:40:43.706Z,1.20
2023-01-17T04:43:11.730Z,5.10
2023-01-17T04:45:41.595Z,3.88
2023-01-17T04:48:12.517Z,2.40
2023-01-17T04:50:40.661Z,3.85
2023-01-17T04:53:08.630Z,1.70
2023-01-17T04:55:36.604Z,3.42
2023-01-17T04:58:04.529Z,3.47
2023-01-17T05:00:32.539Z,3.90
2023-01-17T05:03:01.867Z,5.23
2023-01-17T05:05:29.973Z,8.77
2023-01-17T05:07:59.209Z,4.03
2023-01-17T05:10:27.803Z,2.97
2023-01-17T05:12:56.635Z,3.65
2023-01-17T05:15:25.028Z,8.57
2023-01-17T05:17:54.129Z,7.30
2023-01-17T05:20:24.847Z,5.70
2023-01-17T05:22:55.567Z,6.90
2023-01-17T05:25:24.077Z,5.13
2023-01-17T05:27:52.280Z,5.68
2023-01-17T05:30:21.219Z,3.78
2023-01-17T05:32:50.502Z,5.28
2023-01-17T05:35:19.675Z,8.90
2023-01-17T05:37:49.965Z,5.80
2023-01-17T05:40:18.485Z,5.72
2023-01-17T05:42:47.320Z,5.63
2023-01-17T05:45:17.042Z,4.50
2023-01-17T05:47:45.410Z,10.00
2023-01-17T05:50:14.282Z,4.25
2023-01-17T05:52:42.772Z,4.30
2023-01-17T05:55:12.456Z,2.70
2023-01-17T05:57:40.442Z,1.50
2023-01-17T06:00:09.928Z,5.03
2023-01-17T06:02:37.956Z,5.07
2023-01-17T06:05:06.779Z,8.18
2023-01-17T06:07:34.922Z,7.03
2023-01-17T06:10:03.001Z,3.25
2023-01-17T06:12:32.457Z,4.35
2023-01-17T06:15:00.602Z,4.20
2023-01-17T06:17:28.608Z,4.97
2023-01-17T06:19:56.531Z,3.10
2023-01-17T06:22:24.469Z,4.70
2023-01-17T06:24:52.437Z,5.60
2023-01-17T06:27:20.435Z,3.50
2023-01-17T06:29:49.847Z,3.10
2023-01-17T06:32:17.850Z,6.53
2023-01-17T06:34:45.974Z,4.60
2023-01-17T06:37:14.005Z,8.57
2023-01-17T06:39:41.993Z,2.88
2023-01-17T06:42:09.988Z,3.45
2023-01-17T06:44:37.973Z,4.90
2023-01-17T06:47:07.348Z,5.05
2023-01-17T06:49:35.350Z,6.22
2023-01-17T06:52:03.438Z,5.15
2023-01-17T06:54:31.423Z,9.35
2023-01-17T06:56:59.423Z,6.75
2023-01-17T06:59:27.350Z,9.15
2023-01-17T07:01:55.388Z,6.78
2023-01-17T07:04:24.730Z,3.00
2023-01-17T07:06:52.678Z,3.50
2023-01-17T07:09:20.661Z,5.28
2023-01-17T07:11:48.579Z,6.15
2023-01-17T07:14:16.718Z,7.18
2023-01-17T07:16:46.321Z,4.65
2023-01-17T07:19:14.764Z,5.72
2023-01-17T07:21:44.394Z,4.37
2023-01-17T07:24:12.593Z,6.68
2023-01-17T07:26:40.810Z,7.78
2023-01-17T07:29:08.959Z,5.63
2023-01-17T07:31:38.716Z,6.00
2023-01-17T07:34:07.091Z,4.53
2023-01-17T07:36:35.231Z,5.60
2023-01-17T07:39:06.317Z,6.88
2023-01-17T07:41:41.129Z,4.53
2023-01-17T07:44:09.216Z,5.70
2023-01-17T07:46:37.245Z,4.40
2023-01-17T07:49:05.208Z,4.90
2023-01-17T07:51:33.276Z,2.42
2023-01-17T07:54:01.218Z,5.05
2023-01-17T07:56:30.497Z,6.40
2023-01-17T07:58:58.458Z,4.43
2023-01-17T08:01:27.397Z,4.38
2023-01-17T08:03:55.810Z,3.00
2023-01-17T08:06:26.727Z,3.20
2023-01-17T08:08:57.005Z,6.25
2023-01-17T08:11:25.185Z,2.75
2023-01-17T08:13:57.490Z,4.97
2023-01-17T08:16:25.632Z,2.60
2023-01-17T08:18:53.710Z,5.38
2023-01-17T08:21:21.657Z,6.40
2023-01-17T08:23:50.126Z,4.40
2023-01-17T08:26:21.483Z,3.42
2023-01-17T08:28:50.605Z,2.38
2023-01-17T08:31:20.927Z,4.68
2023-01-17T08:33:48.895Z,3.95
2023-01-17T08:36:16.880Z,1.70
2023-01-17T08:38:44.910Z,2.20
2023-01-17T08:41:13.142Z,3.00
2023-01-17T08:43:41.247Z,3.75
2023-01-17T08:46:09.306Z,2.30
2023-01-17T08:48:38.603Z,3.28
2023-01-17T08:51:07.362Z,2.83
2023-01-17T08:53:35.588Z,3.85
2023-01-17T08:56:05.660Z,4.25
2023-01-17T08:58:34.958Z,6.15
2023-01-17T09:01:04.064Z,4.57
2023-01-17T09:03:33.872Z,4.10
2023-01-17T09:06:05.067Z,4.30
2023-01-17T09:08:33.453Z,4.35
2023-01-17T09:11:04.825Z,3.53
2023-01-17T09:13:32.975Z,3.75
2023-01-17T09:16:01.266Z,3.53
2023-01-17T09:18:30.651Z,5.10
2023-01-17T09:20:59.423Z,4.72
2023-01-17T09:23:30.805Z,2.90
2023-01-17T09:26:00.617Z,3.30
2023-01-17T09:28:29.196Z,2.90
2023-01-17T09:30:57.266Z,3.60
2023-01-17T09:33:25.233Z,5.07
2023-01-17T09:35:53.175Z,5.78
2023-01-17T09:38:21.802Z,3.92
2023-01-17T09:40:51.132Z,2.70
2023-01-17T09:43:25.692Z,2.28
2023-01-17T09:45:53.917Z,2.80
2023-01-17T09:48:30.737Z,2.50
2023-01-17T09:51:01.825Z,4.43
2023-01-17T09:53:35.027Z,4.35
2023-01-17T09:56:08.490Z,3.97
2023-01-17T09:58:43.438Z,2.78
2023-01-17T10:01:20.090Z,3.10
2023-01-17T10:04:05.868Z,2.50
2023-01-17T10:06:47.221Z,3.80
2023-01-17T10:09:35.588Z,2.50
2023-01-17T10:12:20.810Z,2.30
2023-01-17T10:15:14.144Z,2.30
2023-01-17T10:17:51.623Z,3.20
2023-01-17T10:20:41.110Z,2.70
2023-01-17T10:23:25.194Z,2.20
2023-01-17T10:25:55.360Z,4.90
2023-01-17T10:28:28.923Z,3.05
2023-01-17T10:31:03.203Z,3.70
2023-01-17T10:33:37.299Z,4.40
2023-01-17T10:36:11.219Z,3.90
2023-01-17T10:38:43.368Z,4.20
2023-01-17T10:41:18.173Z,4.47
2023-01-17T10:43:57.082Z,5.40
2023-01-17T10:46:32.603Z,3.60
2023-01-17T10:49:01.669Z,4.65
2023-01-17T10:51:59.810Z,6.63
2023-01-17T10:54:46.315Z,4.45
2023-01-17T10:57:18.416Z,4.25
2023-01-17T10:59:47.777Z,4.40
2023-01-17T11:02:22.577Z,9.73
2023-01-17T11:04:54.549Z,3.80
2023-01-17T11:07:24.378Z,5.38
2023-01-17T11:09:54.494Z,4.30
2023-01-17T11:12:27.909Z,10.13
2023-01-17T11:15:03.141Z,5.72
2023-01-17T11:17:32.712Z,4.33
2023-01-17T11:20:19.906Z,4.45
2023-01-17T11:23:07.347Z,4.07
2023-01-17T11:25:36.169Z,4.18
2023-01-17T11:28:07.949Z,4.30
2023-01-17T11:30:37.289Z,2.90
2023-01-17T11:33:08.882Z,2.85
2023-01-17T11:35:38.347Z,3.22
2023-01-17T11:38:11.655Z,4.20
2023-01-17T11:40:41.770Z,3.70
2023-01-17T11:43:22.303Z,4.70
2023-01-17T11:46:07.648Z,3.55
2023-01-17T11:48:38.434Z,2.75
2023-01-17T11:51:18.697Z,3.10
2023-01-17T11:53:48.409Z,4.47
2023-01-17T11:56:31.029Z,3.63
2023-01-17T11:59:27.482Z,3.15
2023-01-17T12:02:21.437Z,3.87
2023-01-17T12:04:56.281Z,3.87
2023-01-17T12:07:31.295Z,4.90
2023-01-17T12:10:07.159Z,3.77
2023-01-17T12:13:04.051Z,3.37
2023-01-17T12:15:47.811Z,5.70
2023-01-17T12:18:33.557Z,3.80
2023-01-17T12:21:17.368Z,3.45
2023-01-17T12:24:00.332Z,3.00
2023-01-17T12:26:36.655Z,4.60
2023-01-17T12:29:44.396Z,2.13
2023-01-17T12:32:30.342Z,3.60
2023-01-17T12:35:04.508Z,2.40
2023-01-17T12:37:37.464Z,2.15
2023-01-17T12:40:15.957Z,2.75
2023-01-17T12:42:49.635Z,5.30
2023-01-17T12:45:23.614Z,3.10
2023-01-17T12:47:57.526Z,2.40
2023-01-17T12:50:31.795Z,3.15
2023-01-17T12:53:05.155Z,3.60
2023-01-17T12:55:41.483Z,2.08
2023-01-17T12:58:17.369Z,1.60
2023-01-17T13:00:51.209Z,3.60
2023-01-17T13:03:27.269Z,2.00
2023-01-17T13:05:58.484Z,2.25
2023-01-17T13:08:30.300Z,3.20
2023-01-17T13:11:00.265Z,2.88
2023-01-17T13:13:30.256Z,1.80
2023-01-17T13:16:03.438Z,4.30
2023-01-17T13:18:33.264Z,3.75
2023-01-17T13:21:19.863Z,2.20
2023-01-17T13:24:03.982Z,3.95
2023-01-17T13:26:44.236Z,3.13
2023-01-17T13:29:21.565Z,2.50
2023-01-17T13:31:52.786Z,2.35
2023-01-17T13:34:41.278Z,2.10
2023-01-17T13:37:36.862Z,2.50
2023-01-17T13:40:27.412Z,3.20
2023-01-17T13:42:59.611Z,1.50
2023-01-17T13:45:29.928Z,1.85
2023-01-17T13:48:25.654Z,2.50
2023-01-17T13:50:55.559Z,2.30
2023-01-17T13:54:00.841Z,1.50
2023-01-17T13:56:37.617Z,1.63
2023-01-17T13:59:34.080Z,2.00
2023-01-17T14:02:02.566Z,1.93
2023-01-17T14:05:09.082Z,1.40
2023-01-17T14:07:43.895Z,1.52
2023-01-17T14:10:33.490Z,2.00
2023-01-17T14:13:02.773Z,3.30
2023-01-17T14:15:33.445Z,0.93
2023-01-17T14:18:03.168Z,2.33
2023-01-17T14:20:52.308Z,1.67
2023-01-17T14:23:41.148Z,1.40
2023-01-17T14:26:44.377Z,1.40
2023-01-17T14:29:47.491Z,1.90
2023-01-17T14:32:17.764Z,2.00
2023-01-17T14:34:47.396Z,1.70
2023-01-17T14:37:35.802Z,1.40
2023-01-17T14:40:04.108Z,1.45
2023-01-17T14:42:34.082Z,1.42
2023-01-17T14:45:05.808Z,1.48
2023-01-17T14:47:36.849Z,3.53
2023-01-17T14:50:14.310Z,1.10
2023-01-17T14:52:42.253Z,1.40
2023-01-17T14:55:17.410Z,1.98
2023-01-17T14:57:54.696Z,2.00
2023-01-17T15:00:29.166Z,2.95
2023-01-17T15:02:59.338Z,1.10
2023-01-17T15:05:30.227Z,2.70
2023-01-17T15:07:59.227Z,1.70
2023-01-17T15:10:30.445Z,1.42
2023-01-17T15:13:06.080Z,1.80
2023-01-17T15:15:38.390Z,2.78
2023-01-17T15:18:26.792Z,2.50
2023-01-17T15:20:59.759Z,1.80
2023-01-17T15:23:33.419Z,2.20
2023-01-17T15:26:03.093Z,2.30
2023-01-17T15:28:32.117Z,3.05
2023-01-17T15:31:09.911Z,1.90
2023-01-17T15:33:40.214Z,2.10
2023-01-17T15:36:11.021Z,2.38
2023-01-17T15:38:41.353Z,2.17
2023-01-17T15:41:12.656Z,1.90
2023-01-17T15:43:41.880Z,1.83
2023-01-17T15:46:24.313Z,2.60
2023-01-17T15:48:52.651Z,1.90
2023-01-17T15:51:35.033Z,2.03
2023-01-17T15:54:35.333Z,3.50
2023-01-17T15:57:17.988Z,2.30
2023-01-17T15:59:48.809Z,2.00
2023-01-17T16:02:31.742Z,1.80
2023-01-17T16:05:00.118Z,1.60
2023-01-17T16:07:34.827Z,2.28
2023-01-17T16:10:08.356Z,2.58
2023-01-17T16:12:38.906Z,3.23
2023-01-17T16:15:12.959Z,2.60
2023-01-17T16:17:46.513Z,4.00
2023-01-17T16:20:20.318Z,2.45
2023-01-17T16:22:48.927Z,2.92
2023-01-17T16:25:19.411Z,2.33
2023-01-17T16:27:47.939Z,1.75
2023-01-17T16:30:17.692Z,1.90
2023-01-17T16:32:48.687Z,2.80
2023-01-17T16:35:19.053Z,2.30
2023-01-17T16:37:50.290Z,2.22
2023-01-17T16:40:18.791Z,2.83
2023-01-17T16:42:47.035Z,2.70
2023-01-17T16:45:16.057Z,4.13
2023-01-17T16:47:46.622Z,3.10
2023-01-17T16:50:17.956Z,3.40
2023-01-17T16:52:46.075Z,1.90
2023-01-17T16:55:16.431Z,2.90
2023-01-17T16:57:44.597Z,2.10
2023-01-17T17:00:13.921Z,2.80
2023-01-17T17:02:42.187Z,2.58
2023-01-17T17:05:12.361Z,3.58
2023-01-17T17:07:42.863Z,3.60
2023-01-17T17:10:11.881Z,3.10
2023-01-17T17:12:39.808Z,2.75
2023-01-17T17:15:09.023Z,2.40
2023-01-17T17:17:37.027Z,3.28
2023-01-17T17:20:05.918Z,2.87
2023-01-17T17:22:35.354Z,2.60
2023-01-17T17:25:03.418Z,3.00
2023-01-17T17:27:31.413Z,2.60
2023-01-17T17:29:59.341Z,3.60
2023-01-17T17:32:28.099Z,2.40
2023-01-17T17:34:56.093Z,4.80
2023-01-17T17:37:24.012Z,3.50
2023-01-17T17:39:53.325Z,2.70
2023-01-17T17:42:21.300Z,3.53
2023-01-17T17:44:49.327Z,2.40
2023-01-17T17:47:17.862Z,3.30
2023-01-17T17:49:45.846Z,4.03
2023-01-17T17:52:13.833Z,3.60
2023-01-17T17:54:41.788Z,3.97
2023-01-17T17:57:11.291Z,3.30
2023-01-17T17:59:39.274Z,4.72
2023-01-17T18:02:10.997Z,3.70
2023-01-17T18:04:39.136Z,2.78
2023-01-17T18:07:07.117Z,3.30
2023-01-17T18:09:35.117Z,3.30
2023-01-17T18:12:03.801Z,2.85
2023-01-17T18:14:33.997Z,2.75
2023-01-17T18:17:01.957Z,3.13
2023-01-17T18:19:30.202Z,3.75
2023-01-17T18:21:58.275Z,3.15
2023-01-17T18:24:28.037Z,2.70
2023-01-17T18:26:57.548Z,3.60
2023-01-17T18:29:26.851Z,4.20
2023-01-17T18:31:56.941Z,4.03
2023-01-17T18:34:28.504Z,4.10
2023-01-17T18:36:57.047Z,3.40
2023-01-17T18:39:26.547Z,4.72
2023-01-17T18:41:55.185Z,3.05
2023-01-17T18:44:23.422Z,3.95
2023-01-17T18:46:51.833Z,4.60
2023-01-17T18:49:21.286Z,4.38
2023-01-17T18:51:51.133Z,4.77
2023-01-17T18:54:20.415Z,3.28
2023-01-17T18:56:48.771Z,3.35
2023-01-17T18:59:18.403Z,4.35
2023-01-17T19:01:46.724Z,3.38
2023-01-17T19:04:17.127Z,4.70
2023-01-17T19:06:48.365Z,4.60
2023-01-17T19:09:17.368Z,4.20
2023-01-17T19:11:47.509Z,5.10
2023-01-17T19:14:15.663Z,6.68
2023-01-17T19:16:44.273Z,4.40
2023-01-17T19:19:15.063Z,5.00
2023-01-17T19:21:43.246Z,6.00
2023-01-17T19:24:14.306Z,6.13
2023-01-17T19:26:42.809Z,5.00
2023-01-17T19:29:12.670Z,6.65
2023-01-17T19:31:43.145Z,5.90
2023-01-17T19:34:13.842Z,6.00
2023-01-17T19:36:42.211Z,5.80
2023-01-17T19:39:12.216Z,5.80
2023-01-17T19:41:43.682Z,7.22
2023-01-17T19:44:13.141Z,4.95
2023-01-17T19:46:41.150Z,6.63
2023-01-17T19:49:10.375Z,5.90
2023-01-17T19:51:39.361Z,6.10
2023-01-17T19:54:08.456Z,7.20
2023-01-17T19:56:37.892Z,6.70
2023-01-17T19:59:06.009Z,6.53
2023-01-17T20:01:35.452Z,6.80
2023-01-17T20:04:04.149Z,8.77
2023-01-17T20:06:33.920Z,8.75
2023-01-17T20:09:02.025Z,6.30
2023-01-17T20:11:30.167Z,6.00
2023-01-17T20:14:00.546Z,4.80
2023-01-17T20:16:30.348Z,7.30
2023-01-17T20:18:58.745Z,7.13
2023-01-17T20:21:28.454Z,6.28
2023-01-17T20:23:58.149Z,6.50
2023-01-17T20:26:34.488Z,7.25
2023-01-17T20:29:06.830Z,5.40
2023-01-17T20:31:38.083Z,6.00
2023-01-17T20:34:06.557Z,5.70
2023-01-17T20:36:34.638Z,9.13
2023-01-17T20:39:04.777Z,5.30
2023-01-17T20:41:35.473Z,8.07
2023-01-17T20:44:06.705Z,5.85
2023-01-17T20:46:37.123Z,6.25
2023-01-17T20:49:07.651Z,5.45
2023-01-17T20:51:38.384Z,7.70
2023-01-17T20:54:08.766Z,5.45
2023-01-17T20:56:37.842Z,5.78
2023-01-17T20:59:09.504Z,5.43
2023-01-17T21:01:38.874Z,5.65
2023-01-17T21:04:09.907Z,5.70
2023-01-17T21:06:39.637Z,5.93
2023-01-17T21:09:08.541Z,8.30
2023-01-17T21:11:37.527Z,5.23
2023-01-17T21:14:07.443Z,7.05
2023-01-17T21:16:35.988Z,5.90
2023-01-17T21:19:04.099Z,6.75
2023-01-17T21:21:32.086Z,7.13
2023-01-17T21:24:00.723Z,6.70
2023-01-17T21:26:29.474Z,6.60
2023-01-17T21:29:00.131Z,6.32
2023-01-17T21:31:33.491Z,6.03
2023-01-17T21:34:03.662Z,7.50
2023-01-17T21:36:33.574Z,6.43
2023-01-17T21:39:04.609Z,6.70
2023-01-17T21:41:35.111Z,7.38
2023-01-17T21:44:04.906Z,6.05
2023-01-17T21:46:37.582Z,5.82
2023-01-17T21:49:05.719Z,5.80
2023-01-17T21:51:52.464Z,6.55
2023-01-17T21:54:20.452Z,4.57
2023-01-17T21:57:06.054Z,9.10
2023-01-17T21:59:34.058Z,8.60
2023-01-17T22:02:03.487Z,8.20
2023-01-17T22:04:31.580Z,7.72
2023-01-17T22:06:59.542Z,5.75
2023-01-17T22:09:27.521Z,6.67
2023-01-17T22:11:55.457Z,5.30
2023-01-17T22:14:23.445Z,5.38
2023-01-17T22:16:51.795Z,7.50
2023-01-17T22:19:21.415Z,7.47
2023-01-17T22:21:49.377Z,7.22
2023-01-17T22:24:17.964Z,5.72
2023-01-17T22:26:45.902Z,6.18
2023-01-17T22:29:16.976Z,6.93
2023-01-17T22:31:44.945Z,5.63
2023-01-17T22:34:14.020Z,6.70
2023-01-17T22:36:43.536Z,5.85
2023-01-17T22:39:11.555Z,7.55
2023-01-17T22:41:40.111Z,6.10
2023-01-17T22:44:08.537Z,5.47
2023-01-17T22:46:38.518Z,5.15
2023-01-17T22:49:08.371Z,6.20
2023-01-17T22:51:36.528Z,7.03
2023-01-17T22:54:05.906Z,7.10
2023-01-17T22:56:34.662Z,6.00
2023-01-17T22:59:02.996Z,6.30
2023-01-17T23:01:32.870Z,9.27
2023-01-17T23:04:03.310Z,6.07
2023-01-17T23:06:32.735Z,7.45
2023-01-17T23:09:02.701Z,7.53
2023-01-17T23:11:40.582Z,7.88
2023-01-17T23:14:10.861Z,5.63
2023-01-17T23:16:57.748Z,6.45
2023-01-17T23:19:27.131Z,8.65
2023-01-17T23:22:14.734Z,9.18
2023-01-17T23:24:44.157Z,6.20
2023-01-17T23:27:34.717Z,9.20
2023-01-17T23:30:03.384Z,8.27
2023-01-17T23:32:31.374Z,6.67
2023-01-17T23:34:59.373Z,8.63
2023-01-17T23:37:48.367Z,7.40
2023-01-17T23:40:17.016Z,6.15
2023-01-17T23:43:04.072Z,6.95
2023-01-17T23:45:34.591Z,6.43
2023-01-17T23:48:04.975Z,5.63
2023-01-17T23:50:33.083Z,7.28
2023-01-17T23:53:06.831Z,7.55
2023-01-17T23:55:36.229Z,5.40
2023-01-17T23:58:05.813Z,6.80
